sensor_id;sensor_type;location;lat;lon;timestamp;P1;durP1;ratioP1;P2;durP2;ratioP2
846;SDS011;410;48.954;9.474;2023-11-19T00:01:01;4.53;;;3.80;;
846;SDS011;410;48.954;9.474;2023-11-19T00:03:07;4.63;;;3.70;;
846;SDS011;410;48.954;9.474;2023-11-19T00:05:10;5.00;;;4.20;;
846;SDS011;410;48.954;9.474;2023-11-19T00:07:14;4.40;;;3.93;;
846;SDS011;410;48.954;9.474;2023-11-19T00:09:21;5.07;;;3.83;;
846;SDS011;410;48.954;9.474;2023-11-19T00:11:24;4.30;;;3.67;;
846;SDS011;410;48.954;9.474;2023-11-19T00:13:27;4.60;;;4.03;;
846;SDS011;410;48.954;9.474;2023-11-19T00:15:30;4.63;;;3.20;;
846;SDS011;410;48.954;9.474;2023-11-19T00:17:33;4.40;;;3.70;;
846;SDS011;410;48.954;9.474;2023-11-19T00:19:37;4.73;;;3.30;;
846;SDS011;410;48.954;9.474;2023-11-19T00:21:39;3.80;;;3.10;;
846;SDS011;410;48.954;9.474;2023-11-19T00:23:42;5.47;;;3.73;;
846;SDS011;410;48.954;9.474;2023-11-19T00:25:47;7.30;;;3.60;;
846;SDS011;410;48.954;9.474;2023-11-19T00:27:50;4.53;;;3.53;;
846;SDS011;410;48.954;9.474;2023-11-19T00:29:55;6.60;;;3.47;;
846;SDS011;410;48.954;9.474;2023-11-19T00:31:58;4.67;;;4.00;;
846;SDS011;410;48.954;9.474;2023-11-19T00:34:01;5.43;;;4.40;;
846;SDS011;410;48.954;9.474;2023-11-19T00:36:05;6.33;;;4.07;;
846;SDS011;410;48.954;9.474;2023-11-19T00:38:09;4.60;;;3.80;;
846;SDS011;410;48.954;9.474;2023-11-19T00:40:12;3.60;;;2.90;;
846;SDS011;410;48.954;9.474;2023-11-19T00:42:19;3.80;;;2.90;;
846;SDS011;410;48.954;9.474;2023-11-19T00:44:22;4.30;;;2.90;;
846;SDS011;410;48.954;9.474;2023-11-19T00:46:26;4.20;;;3.03;;
846;SDS011;410;48.954;9.474;2023-11-19T00:48:30;4.10;;;3.00;;
846;SDS011;410;48.954;9.474;2023-11-19T00:50:33;3.67;;;2.67;;
846;SDS011;410;48.954;9.474;2023-11-19T00:52:39;4.60;;;2.90;;
846;SDS011;410;48.954;9.474;2023-11-19T00:54:41;4.23;;;2.90;;
846;SDS011;410;48.954;9.474;2023-11-19T00:56:44;4.00;;;2.87;;
846;SDS011;410;48.954;9.474;2023-11-19T00:58:49;4.93;;;2.80;;
846;SDS011;410;48.954;9.474;2023-11-19T01:00:52;4.10;;;2.43;;
846;SDS011;410;48.954;9.474;2023-11-19T01:02:55;4.13;;;3.03;;
846;SDS011;410;48.954;9.474;2023-11-19T01:04:58;3.80;;;2.53;;
846;SDS011;410;48.954;9.474;2023-11-19T01:07:02;6.03;;;3.17;;
846;SDS011;410;48.954;9.474;2023-11-19T01:09:06;3.60;;;2.80;;
846;SDS011;410;48.954;9.474;2023-11-19T01:11:18;4.47;;;3.20;;
846;SDS011;410;48.954;9.474;2023-11-19T01:13:23;3.60;;;2.83;;
846;SDS011;410;48.954;9.474;2023-11-19T01:15:28;3.60;;;2.30;;
846;SDS011;410;48.954;9.474;2023-11-19T01:17:31;3.30;;;2.40;;
846;SDS011;410;48.954;9.474;2023-11-19T01:19:34;3.37;;;2.33;;
846;SDS011;410;48.954;9.474;2023-11-19T01:21:37;3.73;;;2.30;;
846;SDS011;410;48.954;9.474;2023-11-19T01:23:40;2.97;;;2.20;;
846;SDS011;410;48.954;9.474;2023-11-19T01:25:47;2.87;;;2.03;;
846;SDS011;410;48.954;9.474;2023-11-19T01:27:50;3.40;;;2.07;;
846;SDS011;410;48.954;9.474;2023-11-19T01:29:54;2.77;;;1.70;;
846;SDS011;410;48.954;9.474;2023-11-19T01:31:58;3.77;;;2.00;;
846;SDS011;410;48.954;9.474;2023-11-19T01:34:01;2.80;;;2.10;;
846;SDS011;410;48.954;9.474;2023-11-19T01:36:04;4.07;;;2.20;;
846;SDS011;410;48.954;9.474;2023-11-19T01:38:09;2.60;;;1.80;;
846;SDS011;410;48.954;9.474;2023-11-19T01:40:13;3.10;;;2.03;;
846;SDS011;410;48.954;9.474;2023-11-19T01:42:17;3.83;;;2.33;;
846;SDS011;410;48.954;9.474;2023-11-19T01:44:20;2.67;;;1.73;;
846;SDS011;410;48.954;9.474;2023-11-19T01:46:23;3.50;;;2.00;;
846;SDS011;410;48.954;9.474;2023-11-19T01:48:29;3.00;;;2.47;;
846;SDS011;410;48.954;9.474;2023-11-19T01:50:34;5.13;;;2.03;;
846;SDS011;410;48.954;9.474;2023-11-19T01:52:38;3.43;;;2.00;;
846;SDS011;410;48.954;9.474;2023-11-19T01:54:40;3.70;;;2.27;;
846;SDS011;410;48.954;9.474;2023-11-19T01:56:44;3.63;;;2.37;;
846;SDS011;410;48.954;9.474;2023-11-19T01:58:47;2.60;;;1.80;;
846;SDS011;410;48.954;9.474;2023-11-19T02:00:51;2.50;;;1.97;;
846;SDS011;410;48.954;9.474;2023-11-19T02:02:55;4.00;;;2.53;;
846;SDS011;410;48.954;9.474;2023-11-19T02:05:01;3.23;;;2.13;;
846;SDS011;410;48.954;9.474;2023-11-19T02:07:04;3.47;;;2.00;;
846;SDS011;410;48.954;9.474;2023-11-19T02:09:07;3.07;;;1.90;;
846;SDS011;410;48.954;9.474;2023-11-19T02:11:12;2.70;;;1.80;;
846;SDS011;410;48.954;9.474;2023-11-19T02:13:16;3.47;;;1.90;;
846;SDS011;410;48.954;9.474;2023-11-19T02:15:20;2.97;;;1.77;;
846;SDS011;410;48.954;9.474;2023-11-19T02:17:26;2.70;;;2.00;;
846;SDS011;410;48.954;9.474;2023-11-19T02:19:30;2.30;;;1.67;;
846;SDS011;410;48.954;9.474;2023-11-19T02:21:35;2.90;;;1.80;;
846;SDS011;410;48.954;9.474;2023-11-19T02:23:39;2.77;;;2.00;;
846;SDS011;410;48.954;9.474;2023-11-19T02:25:45;2.80;;;1.80;;
846;SDS011;410;48.954;9.474;2023-11-19T02:27:54;4.90;;;1.90;;
846;SDS011;410;48.954;9.474;2023-11-19T02:30:01;2.87;;;1.83;;
846;SDS011;410;48.954;9.474;2023-11-19T02:32:05;3.40;;;2.13;;
846;SDS011;410;48.954;9.474;2023-11-19T02:34:11;2.83;;;1.97;;
846;SDS011;410;48.954;9.474;2023-11-19T02:36:15;2.97;;;2.13;;
846;SDS011;410;48.954;9.474;2023-11-19T02:38:19;3.20;;;2.17;;
846;SDS011;410;48.954;9.474;2023-11-19T02:40:24;3.50;;;1.90;;
846;SDS011;410;48.954;9.474;2023-11-19T02:42:27;3.80;;;2.20;;
846;SDS011;410;48.954;9.474;2023-11-19T02:44:32;3.60;;;2.33;;
846;SDS011;410;48.954;9.474;2023-11-19T02:46:36;2.73;;;1.93;;
846;SDS011;410;48.954;9.474;2023-11-19T02:48:40;3.57;;;1.90;;
846;SDS011;410;48.954;9.474;2023-11-19T02:50:45;3.53;;;2.27;;
846;SDS011;410;48.954;9.474;2023-11-19T02:52:47;3.20;;;2.33;;
846;SDS011;410;48.954;9.474;2023-11-19T02:54:52;3.83;;;2.40;;
846;SDS011;410;48.954;9.474;2023-11-19T02:56:56;4.07;;;3.13;;
846;SDS011;410;48.954;9.474;2023-11-19T02:59:02;4.90;;;3.90;;
846;SDS011;410;48.954;9.474;2023-11-19T03:01:12;4.60;;;3.73;;
846;SDS011;410;48.954;9.474;2023-11-19T03:03:25;5.67;;;4.10;;
846;SDS011;410;48.954;9.474;2023-11-19T03:05:33;5.40;;;4.07;;
846;SDS011;410;48.954;9.474;2023-11-19T03:07:43;4.17;;;3.50;;
846;SDS011;410;48.954;9.474;2023-11-19T03:09:47;4.90;;;4.13;;
846;SDS011;410;48.954;9.474;2023-11-19T03:11:51;6.97;;;4.57;;
846;SDS011;410;48.954;9.474;2023-11-19T03:13:55;6.43;;;4.93;;
846;SDS011;410;48.954;9.474;2023-11-19T03:15:58;6.07;;;5.00;;
846;SDS011;410;48.954;9.474;2023-11-19T03:18:03;5.10;;;4.50;;
846;SDS011;410;48.954;9.474;2023-11-19T03:20:08;5.40;;;4.43;;
846;SDS011;410;48.954;9.474;2023-11-19T03:22:13;4.40;;;3.90;;
846;SDS011;410;48.954;9.474;2023-11-19T03:24:16;6.30;;;5.00;;
846;SDS011;410;48.954;9.474;2023-11-19T03:26:20;5.13;;;4.37;;
846;SDS011;410;48.954;9.474;2023-11-19T03:28:24;6.13;;;4.30;;
846;SDS011;410;48.954;9.474;2023-11-19T03:30:28;4.20;;;3.80;;
846;SDS011;410;48.954;9.474;2023-11-19T03:32:35;6.80;;;4.93;;
846;SDS011;410;48.954;9.474;2023-11-19T03:34:41;6.70;;;4.30;;
846;SDS011;410;48.954;9.474;2023-11-19T03:36:44;4.07;;;3.03;;
846;SDS011;410;48.954;9.474;2023-11-19T03:38:48;2.97;;;2.30;;
846;SDS011;410;48.954;9.474;2023-11-19T03:40:51;2.47;;;1.90;;
846;SDS011;410;48.954;9.474;2023-11-19T03:42:55;2.57;;;1.63;;
846;SDS011;410;48.954;9.474;2023-11-19T03:44:59;2.03;;;1.43;;
846;SDS011;410;48.954;9.474;2023-11-19T03:47:03;3.30;;;1.70;;
846;SDS011;410;48.954;9.474;2023-11-19T03:49:07;2.77;;;1.80;;
846;SDS011;410;48.954;9.474;2023-11-19T03:51:12;2.77;;;1.80;;
846;SDS011;410;48.954;9.474;2023-11-19T03:53:17;3.53;;;2.00;;
846;SDS011;410;48.954;9.474;2023-11-19T03:55:21;3.43;;;1.97;;
846;SDS011;410;48.954;9.474;2023-11-19T03:57:24;4.07;;;2.23;;
846;SDS011;410;48.954;9.474;2023-11-19T03:59:28;2.80;;;1.80;;
846;SDS011;410;48.954;9.474;2023-11-19T04:01:32;3.20;;;2.10;;
846;SDS011;410;48.954;9.474;2023-11-19T04:03:35;2.87;;;2.40;;
846;SDS011;410;48.954;9.474;2023-11-19T04:05:52;3.30;;;1.97;;
846;SDS011;410;48.954;9.474;2023-11-19T04:07:57;2.83;;;2.00;;
846;SDS011;410;48.954;9.474;2023-11-19T04:10:01;3.50;;;2.20;;
846;SDS011;410;48.954;9.474;2023-11-19T04:12:05;2.60;;;1.87;;
846;SDS011;410;48.954;9.474;2023-11-19T04:14:13;2.63;;;2.00;;
846;SDS011;410;48.954;9.474;2023-11-19T04:16:16;2.93;;;1.77;;
846;SDS011;410;48.954;9.474;2023-11-19T04:18:20;2.23;;;1.73;;
846;SDS011;410;48.954;9.474;2023-11-19T04:20:24;2.57;;;1.80;;
846;SDS011;410;48.954;9.474;2023-11-19T04:22:30;2.40;;;1.53;;
846;SDS011;410;48.954;9.474;2023-11-19T04:24:35;1.87;;;1.37;;
846;SDS011;410;48.954;9.474;2023-11-19T04:26:40;3.13;;;1.57;;
846;SDS011;410;48.954;9.474;2023-11-19T04:28:45;2.80;;;1.50;;
846;SDS011;410;48.954;9.474;2023-11-19T04:30:52;2.73;;;1.67;;
846;SDS011;410;48.954;9.474;2023-11-19T04:32:57;2.10;;;1.50;;
846;SDS011;410;48.954;9.474;2023-11-19T04:35:01;2.80;;;1.67;;
846;SDS011;410;48.954;9.474;2023-11-19T04:37:03;2.73;;;1.50;;
846;SDS011;410;48.954;9.474;2023-11-19T04:39:10;2.10;;;1.30;;
846;SDS011;410;48.954;9.474;2023-11-19T04:41:16;2.33;;;1.37;;
846;SDS011;410;48.954;9.474;2023-11-19T04:43:20;1.87;;;1.23;;
846;SDS011;410;48.954;9.474;2023-11-19T04:45:24;2.77;;;1.10;;
846;SDS011;410;48.954;9.474;2023-11-19T04:47:28;2.97;;;1.10;;
846;SDS011;410;48.954;9.474;2023-11-19T04:49:31;1.70;;;1.00;;
846;SDS011;410;48.954;9.474;2023-11-19T04:51:38;4.33;;;1.50;;
846;SDS011;410;48.954;9.474;2023-11-19T04:53:43;1.57;;;0.97;;
846;SDS011;410;48.954;9.474;2023-11-19T04:55:46;1.70;;;1.00;;
846;SDS011;410;48.954;9.474;2023-11-19T04:57:53;2.00;;;1.10;;
846;SDS011;410;48.954;9.474;2023-11-19T04:59:57;2.00;;;1.50;;
846;SDS011;410;48.954;9.474;2023-11-19T05:02:00;2.50;;;1.50;;
846;SDS011;410;48.954;9.474;2023-11-19T05:04:03;2.43;;;1.30;;
846;SDS011;410;48.954;9.474;2023-11-19T05:06:06;2.23;;;1.43;;
846;SDS011;410;48.954;9.474;2023-11-19T05:08:10;2.50;;;1.80;;
846;SDS011;410;48.954;9.474;2023-11-19T05:10:14;4.73;;;1.80;;
846;SDS011;410;48.954;9.474;2023-11-19T05:12:17;2.80;;;1.53;;
846;SDS011;410;48.954;9.474;2023-11-19T05:14:21;3.70;;;2.10;;
846;SDS011;410;48.954;9.474;2023-11-19T05:16:26;1.80;;;1.10;;
846;SDS011;410;48.954;9.474;2023-11-19T05:18:29;1.90;;;1.23;;
846;SDS011;410;48.954;9.474;2023-11-19T05:20:32;1.80;;;1.10;;
846;SDS011;410;48.954;9.474;2023-11-19T05:22:35;2.23;;;1.40;;
846;SDS011;410;48.954;9.474;2023-11-19T05:24:39;5.00;;;2.07;;
846;SDS011;410;48.954;9.474;2023-11-19T05:26:42;4.93;;;1.57;;
846;SDS011;410;48.954;9.474;2023-11-19T05:28:45;2.20;;;1.30;;
846;SDS011;410;48.954;9.474;2023-11-19T05:30:50;3.53;;;1.40;;
846;SDS011;410;48.954;9.474;2023-11-19T05:32:53;2.10;;;1.37;;
846;SDS011;410;48.954;9.474;2023-11-19T05:34:56;2.57;;;1.43;;
846;SDS011;410;48.954;9.474;2023-11-19T05:36:59;2.47;;;1.63;;
846;SDS011;410;48.954;9.474;2023-11-19T05:39:03;2.13;;;1.40;;
846;SDS011;410;48.954;9.474;2023-11-19T05:41:06;2.50;;;1.23;;
846;SDS011;410;48.954;9.474;2023-11-19T05:43:10;1.93;;;0.90;;
846;SDS011;410;48.954;9.474;2023-11-19T05:45:13;1.67;;;0.87;;
846;SDS011;410;48.954;9.474;2023-11-19T05:47:18;2.90;;;1.50;;
846;SDS011;410;48.954;9.474;2023-11-19T05:49:21;5.23;;;3.33;;
846;SDS011;410;48.954;9.474;2023-11-19T05:51:24;4.97;;;4.40;;
846;SDS011;410;48.954;9.474;2023-11-19T05:53:28;4.83;;;4.20;;
846;SDS011;410;48.954;9.474;2023-11-19T05:55:31;6.10;;;5.50;;
846;SDS011;410;48.954;9.474;2023-11-19T05:57:36;4.33;;;3.90;;
846;SDS011;410;48.954;9.474;2023-11-19T05:59:48;5.50;;;3.70;;
846;SDS011;410;48.954;9.474;2023-11-19T06:01:51;5.40;;;2.67;;
846;SDS011;410;48.954;9.474;2023-11-19T06:03:56;4.03;;;3.20;;
846;SDS011;410;48.954;9.474;2023-11-19T06:05:59;3.93;;;2.83;;
846;SDS011;410;48.954;9.474;2023-11-19T06:08:02;3.70;;;3.10;;
846;SDS011;410;48.954;9.474;2023-11-19T06:10:06;4.90;;;3.03;;
846;SDS011;410;48.954;9.474;2023-11-19T06:12:12;5.37;;;2.87;;
846;SDS011;410;48.954;9.474;2023-11-19T06:14:15;4.23;;;2.93;;
846;SDS011;410;48.954;9.474;2023-11-19T06:16:18;4.30;;;2.80;;
846;SDS011;410;48.954;9.474;2023-11-19T06:18:22;2.80;;;2.03;;
846;SDS011;410;48.954;9.474;2023-11-19T06:20:30;2.20;;;1.53;;
846;SDS011;410;48.954;9.474;2023-11-19T06:22:44;1.90;;;0.90;;
846;SDS011;410;48.954;9.474;2023-11-19T06:24:47;2.27;;;1.30;;
846;SDS011;410;48.954;9.474;2023-11-19T06:26:50;4.50;;;3.90;;
846;SDS011;410;48.954;9.474;2023-11-19T06:28:53;11.03;;;9.93;;
846;SDS011;410;48.954;9.474;2023-11-19T06:30:56;9.00;;;8.10;;
846;SDS011;410;48.954;9.474;2023-11-19T06:33:00;12.27;;;9.63;;
846;SDS011;410;48.954;9.474;2023-11-19T06:35:03;12.80;;;11.50;;
846;SDS011;410;48.954;9.474;2023-11-19T06:37:08;21.77;;;19.37;;
846;SDS011;410;48.954;9.474;2023-11-19T06:39:12;17.70;;;16.00;;
846;SDS011;410;48.954;9.474;2023-11-19T06:41:16;5.67;;;5.07;;
846;SDS011;410;48.954;9.474;2023-11-19T06:43:19;6.87;;;5.43;;
846;SDS011;410;48.954;9.474;2023-11-19T06:45:21;5.80;;;4.50;;
846;SDS011;410;48.954;9.474;2023-11-19T06:47:25;5.53;;;4.33;;
846;SDS011;410;48.954;9.474;2023-11-19T06:49:29;6.50;;;4.87;;
846;SDS011;410;48.954;9.474;2023-11-19T06:51:33;8.50;;;6.87;;
846;SDS011;410;48.954;9.474;2023-11-19T06:53:37;5.70;;;4.83;;
846;SDS011;410;48.954;9.474;2023-11-19T06:55:42;4.97;;;3.60;;
846;SDS011;410;48.954;9.474;2023-11-19T06:57:46;5.77;;;3.70;;
846;SDS011;410;48.954;9.474;2023-11-19T06:59:48;4.60;;;3.70;;
846;SDS011;410;48.954;9.474;2023-11-19T07:01:51;16.00;;;10.40;;
846;SDS011;410;48.954;9.474;2023-11-19T07:03:54;41.83;;;23.83;;
846;SDS011;410;48.954;9.474;2023-11-19T07:06:00;32.73;;;21.73;;
846;SDS011;410;48.954;9.474;2023-11-19T07:08:03;9.83;;;6.40;;
846;SDS011;410;48.954;9.474;2023-11-19T07:10:08;11.70;;;7.07;;
846;SDS011;410;48.954;9.474;2023-11-19T07:12:11;11.67;;;5.90;;
846;SDS011;410;48.954;9.474;2023-11-19T07:14:16;9.07;;;5.47;;
846;SDS011;410;48.954;9.474;2023-11-19T07:16:19;4.70;;;3.83;;
846;SDS011;410;48.954;9.474;2023-11-19T07:18:23;3.27;;;2.50;;
846;SDS011;410;48.954;9.474;2023-11-19T07:20:28;5.07;;;3.40;;
846;SDS011;410;48.954;9.474;2023-11-19T07:22:33;3.03;;;1.63;;
846;SDS011;410;48.954;9.474;2023-11-19T07:24:36;3.50;;;1.40;;
846;SDS011;410;48.954;9.474;2023-11-19T07:26:43;2.60;;;1.73;;
846;SDS011;410;48.954;9.474;2023-11-19T07:28:49;2.60;;;1.70;;
846;SDS011;410;48.954;9.474;2023-11-19T07:30:51;1.90;;;1.17;;
846;SDS011;410;48.954;9.474;2023-11-19T07:32:54;3.70;;;1.27;;
846;SDS011;410;48.954;9.474;2023-11-19T07:34:57;9.20;;;6.50;;
846;SDS011;410;48.954;9.474;2023-11-19T07:37:17;6.33;;;4.40;;
846;SDS011;410;48.954;9.474;2023-11-19T07:39:20;3.07;;;2.17;;
846;SDS011;410;48.954;9.474;2023-11-19T07:41:23;3.30;;;2.40;;
846;SDS011;410;48.954;9.474;2023-11-19T07:43:28;3.80;;;2.20;;
846;SDS011;410;48.954;9.474;2023-11-19T07:45:32;2.40;;;1.47;;
846;SDS011;410;48.954;9.474;2023-11-19T07:47:36;2.13;;;1.10;;
846;SDS011;410;48.954;9.474;2023-11-19T07:49:40;1.93;;;1.10;;
846;SDS011;410;48.954;9.474;2023-11-19T07:51:46;2.03;;;1.10;;
846;SDS011;410;48.954;9.474;2023-11-19T07:53:50;4.90;;;3.20;;
846;SDS011;410;48.954;9.474;2023-11-19T07:55:52;3.30;;;2.10;;
846;SDS011;410;48.954;9.474;2023-11-19T07:57:55;3.53;;;1.20;;
846;SDS011;410;48.954;9.474;2023-11-19T08:00:00;2.93;;;1.10;;
846;SDS011;410;48.954;9.474;2023-11-19T08:02:13;2.20;;;1.00;;
846;SDS011;410;48.954;9.474;2023-11-19T08:04:16;2.13;;;1.00;;
846;SDS011;410;48.954;9.474;2023-11-19T08:06:20;1.70;;;1.00;;
846;SDS011;410;48.954;9.474;2023-11-19T08:08:24;2.17;;;1.07;;
846;SDS011;410;48.954;9.474;2023-11-19T08:10:27;4.47;;;2.87;;
846;SDS011;410;48.954;9.474;2023-11-19T08:12:31;4.33;;;2.77;;
846;SDS011;410;48.954;9.474;2023-11-19T08:14:37;3.77;;;2.10;;
846;SDS011;410;48.954;9.474;2023-11-19T08:16:41;3.47;;;2.00;;
846;SDS011;410;48.954;9.474;2023-11-19T08:18:45;2.17;;;1.20;;
846;SDS011;410;48.954;9.474;2023-11-19T08:20:48;1.70;;;0.90;;
846;SDS011;410;48.954;9.474;2023-11-19T08:22:54;1.63;;;0.80;;
846;SDS011;410;48.954;9.474;2023-11-19T08:24:57;2.10;;;0.83;;
846;SDS011;410;48.954;9.474;2023-11-19T08:27:01;1.73;;;0.90;;
846;SDS011;410;48.954;9.474;2023-11-19T08:29:04;1.93;;;0.90;;
846;SDS011;410;48.954;9.474;2023-11-19T08:31:08;2.27;;;0.87;;
846;SDS011;410;48.954;9.474;2023-11-19T08:33:13;7.03;;;1.63;;
846;SDS011;410;48.954;9.474;2023-11-19T08:35:17;2.80;;;1.80;;
846;SDS011;410;48.954;9.474;2023-11-19T08:37:20;4.40;;;2.57;;
846;SDS011;410;48.954;9.474;2023-11-19T08:39:25;1.70;;;0.80;;
846;SDS011;410;48.954;9.474;2023-11-19T08:41:29;1.70;;;0.90;;
846;SDS011;410;48.954;9.474;2023-11-19T08:43:32;1.60;;;0.80;;
846;SDS011;410;48.954;9.474;2023-11-19T08:45:36;1.43;;;0.70;;
846;SDS011;410;48.954;9.474;2023-11-19T08:47:38;1.67;;;0.87;;
846;SDS011;410;48.954;9.474;2023-11-19T08:49:44;6.87;;;1.00;;
846;SDS011;410;48.954;9.474;2023-11-19T08:51:46;1.80;;;0.83;;
846;SDS011;410;48.954;9.474;2023-11-19T08:53:49;2.20;;;0.90;;
846;SDS011;410;48.954;9.474;2023-11-19T08:55:52;3.43;;;1.90;;
846;SDS011;410;48.954;9.474;2023-11-19T08:57:56;3.73;;;2.13;;
846;SDS011;410;48.954;9.474;2023-11-19T09:00:00;2.90;;;2.00;;
846;SDS011;410;48.954;9.474;2023-11-19T09:02:02;6.10;;;2.57;;
846;SDS011;410;48.954;9.474;2023-11-19T09:04:06;2.90;;;2.17;;
846;SDS011;410;48.954;9.474;2023-11-19T09:06:10;2.53;;;1.80;;
846;SDS011;410;48.954;9.474;2023-11-19T09:08:14;2.83;;;1.60;;
846;SDS011;410;48.954;9.474;2023-11-19T09:10:17;2.87;;;1.60;;
846;SDS011;410;48.954;9.474;2023-11-19T09:12:20;6.63;;;5.17;;
846;SDS011;410;48.954;9.474;2023-11-19T09:14:23;5.80;;;3.60;;
846;SDS011;410;48.954;9.474;2023-11-19T09:16:28;13.00;;;7.80;;
846;SDS011;410;48.954;9.474;2023-11-19T09:18:31;10.37;;;6.67;;
846;SDS011;410;48.954;9.474;2023-11-19T09:20:35;10.30;;;7.03;;
846;SDS011;410;48.954;9.474;2023-11-19T09:22:42;9.90;;;5.90;;
846;SDS011;410;48.954;9.474;2023-11-19T09:24:45;7.60;;;6.50;;
846;SDS011;410;48.954;9.474;2023-11-19T09:26:50;6.50;;;5.07;;
846;SDS011;410;48.954;9.474;2023-11-19T09:28:53;10.80;;;9.80;;
846;SDS011;410;48.954;9.474;2023-11-19T09:30:56;8.50;;;7.27;;
846;SDS011;410;48.954;9.474;2023-11-19T09:32:58;18.43;;;11.33;;
846;SDS011;410;48.954;9.474;2023-11-19T09:35:02;27.90;;;15.43;;
846;SDS011;410;48.954;9.474;2023-11-19T09:37:06;28.70;;;15.70;;
846;SDS011;410;48.954;9.474;2023-11-19T09:39:24;9.50;;;6.63;;
846;SDS011;410;48.954;9.474;2023-11-19T09:41:27;15.30;;;8.20;;
846;SDS011;410;48.954;9.474;2023-11-19T09:43:31;12.50;;;9.13;;
846;SDS011;410;48.954;9.474;2023-11-19T09:45:38;11.80;;;10.40;;
846;SDS011;410;48.954;9.474;2023-11-19T09:47:51;5.83;;;4.37;;
846;SDS011;410;48.954;9.474;2023-11-19T09:49:55;6.50;;;4.97;;
846;SDS011;410;48.954;9.474;2023-11-19T09:52:00;13.00;;;5.90;;
846;SDS011;410;48.954;9.474;2023-11-19T09:54:07;10.03;;;5.50;;
846;SDS011;410;48.954;9.474;2023-11-19T09:56:12;5.07;;;4.10;;
846;SDS011;410;48.954;9.474;2023-11-19T09:58:16;5.47;;;4.23;;
846;SDS011;410;48.954;9.474;2023-11-19T10:00:20;4.47;;;3.57;;
846;SDS011;410;48.954;9.474;2023-11-19T10:02:24;3.60;;;2.90;;
846;SDS011;410;48.954;9.474;2023-11-19T10:04:29;4.33;;;1.90;;
846;SDS011;410;48.954;9.474;2023-11-19T10:06:33;3.17;;;2.20;;
846;SDS011;410;48.954;9.474;2023-11-19T10:08:37;4.20;;;2.50;;
846;SDS011;410;48.954;9.474;2023-11-19T10:10:41;6.43;;;3.77;;
846;SDS011;410;48.954;9.474;2023-11-19T10:12:45;3.50;;;2.00;;
846;SDS011;410;48.954;9.474;2023-11-19T10:14:52;2.87;;;1.70;;
846;SDS011;410;48.954;9.474;2023-11-19T10:16:57;2.60;;;1.67;;
846;SDS011;410;48.954;9.474;2023-11-19T10:19:01;6.63;;;3.03;;
846;SDS011;410;48.954;9.474;2023-11-19T10:21:05;3.10;;;1.80;;
846;SDS011;410;48.954;9.474;2023-11-19T10:23:08;3.70;;;1.50;;
846;SDS011;410;48.954;9.474;2023-11-19T10:25:22;2.90;;;1.90;;
846;SDS011;410;48.954;9.474;2023-11-19T10:27:26;2.30;;;1.40;;
846;SDS011;410;48.954;9.474;2023-11-19T10:29:31;2.83;;;1.40;;
846;SDS011;410;48.954;9.474;2023-11-19T10:31:34;3.60;;;1.53;;
846;SDS011;410;48.954;9.474;2023-11-19T10:33:37;2.40;;;1.50;;
846;SDS011;410;48.954;9.474;2023-11-19T10:35:50;2.00;;;1.30;;
846;SDS011;410;48.954;9.474;2023-11-19T10:37:58;2.33;;;1.37;;
846;SDS011;410;48.954;9.474;2023-11-19T10:40:02;3.57;;;2.00;;
846;SDS011;410;48.954;9.474;2023-11-19T10:42:14;3.77;;;1.80;;
846;SDS011;410;48.954;9.474;2023-11-19T10:46:42;3.60;;;1.47;;
846;SDS011;410;48.954;9.474;2023-11-19T10:48:46;2.40;;;1.20;;
846;SDS011;410;48.954;9.474;2023-11-19T10:50:49;2.73;;;1.30;;
846;SDS011;410;48.954;9.474;2023-11-19T10:52:56;2.87;;;1.20;;
846;SDS011;410;48.954;9.474;2023-11-19T10:55:00;2.93;;;1.60;;
846;SDS011;410;48.954;9.474;2023-11-19T10:57:07;4.30;;;1.60;;
846;SDS011;410;48.954;9.474;2023-11-19T10:59:13;2.50;;;1.50;;
846;SDS011;410;48.954;9.474;2023-11-19T11:01:21;4.70;;;1.67;;
846;SDS011;410;48.954;9.474;2023-11-19T11:03:29;2.50;;;1.20;;
846;SDS011;410;48.954;9.474;2023-11-19T11:05:38;3.70;;;1.30;;
846;SDS011;410;48.954;9.474;2023-11-19T11:07:40;2.00;;;1.00;;
846;SDS011;410;48.954;9.474;2023-11-19T11:09:46;2.33;;;1.07;;
846;SDS011;410;48.954;9.474;2023-11-19T11:11:50;3.40;;;1.20;;
846;SDS011;410;48.954;9.474;2023-11-19T11:13:55;2.27;;;1.17;;
846;SDS011;410;48.954;9.474;2023-11-19T11:16:00;3.30;;;1.10;;
846;SDS011;410;48.954;9.474;2023-11-19T11:18:08;3.27;;;1.20;;
846;SDS011;410;48.954;9.474;2023-11-19T11:20:11;3.77;;;1.50;;
846;SDS011;410;48.954;9.474;2023-11-19T11:22:15;2.77;;;1.20;;
846;SDS011;410;48.954;9.474;2023-11-19T11:24:40;2.50;;;1.20;;
846;SDS011;410;48.954;9.474;2023-11-19T11:27:13;3.03;;;1.20;;
846;SDS011;410;48.954;9.474;2023-11-19T11:29:26;3.10;;;1.00;;
846;SDS011;410;48.954;9.474;2023-11-19T11:31:35;3.23;;;1.20;;
846;SDS011;410;48.954;9.474;2023-11-19T11:33:48;2.27;;;0.83;;
846;SDS011;410;48.954;9.474;2023-11-19T11:36:08;2.47;;;1.20;;
846;SDS011;410;48.954;9.474;2023-11-19T11:38:16;4.60;;;2.03;;
846;SDS011;410;48.954;9.474;2023-11-19T11:40:25;3.87;;;1.43;;
846;SDS011;410;48.954;9.474;2023-11-19T11:42:32;3.17;;;1.23;;
846;SDS011;410;48.954;9.474;2023-11-19T11:47:07;3.50;;;1.10;;
846;SDS011;410;48.954;9.474;2023-11-19T11:49:12;2.97;;;0.90;;
846;SDS011;410;48.954;9.474;2023-11-19T11:51:15;2.20;;;1.10;;
846;SDS011;410;48.954;9.474;2023-11-19T11:53:19;3.47;;;1.00;;
846;SDS011;410;48.954;9.474;2023-11-19T11:55:24;3.20;;;1.03;;
846;SDS011;410;48.954;9.474;2023-11-19T11:57:27;4.17;;;1.00;;
846;SDS011;410;48.954;9.474;2023-11-19T11:59:47;2.60;;;1.57;;
846;SDS011;410;48.954;9.474;2023-11-19T12:01:57;3.00;;;1.10;;
846;SDS011;410;48.954;9.474;2023-11-19T12:03:59;2.57;;;1.10;;
846;SDS011;410;48.954;9.474;2023-11-19T12:06:05;2.13;;;0.90;;
846;SDS011;410;48.954;9.474;2023-11-19T12:08:10;4.63;;;3.33;;
846;SDS011;410;48.954;9.474;2023-11-19T12:10:13;2.20;;;1.03;;
846;SDS011;410;48.954;9.474;2023-11-19T12:12:18;2.80;;;1.30;;
846;SDS011;410;48.954;9.474;2023-11-19T12:17:02;2.87;;;0.83;;
846;SDS011;410;48.954;9.474;2023-11-19T12:19:06;2.80;;;0.93;;
846;SDS011;410;48.954;9.474;2023-11-19T12:21:11;2.73;;;1.00;;
846;SDS011;410;48.954;9.474;2023-11-19T12:23:14;4.17;;;1.00;;
846;SDS011;410;48.954;9.474;2023-11-19T12:25:17;2.00;;;0.77;;
846;SDS011;410;48.954;9.474;2023-11-19T12:27:21;2.80;;;1.20;;
846;SDS011;410;48.954;9.474;2023-11-19T12:29:24;2.87;;;1.10;;
846;SDS011;410;48.954;9.474;2023-11-19T12:31:31;4.67;;;1.30;;
846;SDS011;410;48.954;9.474;2023-11-19T12:33:35;3.37;;;1.10;;
846;SDS011;410;48.954;9.474;2023-11-19T12:35:40;2.73;;;1.33;;
846;SDS011;410;48.954;9.474;2023-11-19T12:37:45;2.47;;;1.40;;
846;SDS011;410;48.954;9.474;2023-11-19T12:39:52;2.47;;;1.00;;
846;SDS011;410;48.954;9.474;2023-11-19T12:41:56;2.80;;;0.97;;
846;SDS011;410;48.954;9.474;2023-11-19T12:44:08;3.67;;;1.33;;
846;SDS011;410;48.954;9.474;2023-11-19T12:46:18;1.90;;;0.87;;
846;SDS011;410;48.954;9.474;2023-11-19T12:48:23;3.60;;;0.90;;
846;SDS011;410;48.954;9.474;2023-11-19T12:50:26;2.50;;;1.40;;
846;SDS011;410;48.954;9.474;2023-11-19T12:52:30;3.30;;;1.20;;
846;SDS011;410;48.954;9.474;2023-11-19T12:54:35;3.20;;;1.10;;
846;SDS011;410;48.954;9.474;2023-11-19T12:56:39;2.83;;;1.30;;
846;SDS011;410;48.954;9.474;2023-11-19T12:58:43;3.00;;;1.20;;
846;SDS011;410;48.954;9.474;2023-11-19T13:00:47;2.03;;;1.10;;
846;SDS011;410;48.954;9.474;2023-11-19T13:02:50;3.97;;;1.20;;
846;SDS011;410;48.954;9.474;2023-11-19T13:04:54;2.40;;;1.00;;
846;SDS011;410;48.954;9.474;2023-11-19T13:06:56;1.97;;;0.77;;
846;SDS011;410;48.954;9.474;2023-11-19T13:09:02;3.80;;;1.10;;
846;SDS011;410;48.954;9.474;2023-11-19T13:11:07;2.37;;;1.00;;
846;SDS011;410;48.954;9.474;2023-11-19T13:13:11;2.00;;;1.00;;
846;SDS011;410;48.954;9.474;2023-11-19T13:15:23;2.47;;;1.00;;
846;SDS011;410;48.954;9.474;2023-11-19T13:17:27;3.00;;;2.00;;
846;SDS011;410;48.954;9.474;2023-11-19T13:19:31;3.10;;;0.90;;
846;SDS011;410;48.954;9.474;2023-11-19T13:21:33;2.27;;;1.00;;
846;SDS011;410;48.954;9.474;2023-11-19T13:23:36;2.70;;;0.80;;
846;SDS011;410;48.954;9.474;2023-11-19T13:25:39;4.20;;;1.23;;
846;SDS011;410;48.954;9.474;2023-11-19T13:27:43;2.20;;;1.10;;